createdAt,value
2018-11-04T00:00:08.653Z,2.10
2018-11-04T00:01:08.606Z,2.08
2018-11-04T00:02:08.551Z,2.05
2018-11-04T00:03:08.505Z,2.10
2018-11-04T00:04:08.456Z,2.04
2018-11-04T00:05:08.401Z,2.08
2018-11-04T00:06:08.350Z,2.07
2018-11-04T00:07:08.303Z,2.07
2018-11-04T00:08:08.255Z,2.00
2018-11-04T00:09:08.200Z,2.01
2018-11-04T00:10:08.153Z,2.00
2018-11-04T00:11:08.101Z,2.00
2018-11-04T00:12:08.054Z,2.00
2018-11-04T00:13:08.073Z,2.04
2018-11-04T00:14:07.952Z,2.08
2018-11-04T00:15:07.896Z,2.07
2018-11-04T00:16:07.845Z,2.01
2018-11-04T00:17:07.802Z,1.97
2018-11-04T00:18:07.751Z,2.01
2018-11-04T00:19:07.741Z,1.97
2018-11-04T00:20:07.655Z,2.04
2018-11-04T00:21:07.604Z,2.00
2018-11-04T00:22:07.545Z,2.05
2018-11-04T00:23:07.495Z,2.07
2018-11-04T00:24:07.562Z,2.00
2018-11-04T00:25:07.396Z,2.04
2018-11-04T00:26:07.343Z,2.07
2018-11-04T00:27:07.296Z,2.07
2018-11-04T00:28:07.242Z,2.01
2018-11-04T00:29:07.195Z,2.08
2018-11-04T00:30:07.145Z,2.03
2018-11-04T00:31:07.097Z,2.07
2018-11-04T00:32:07.044Z,2.10
2018-11-04T00:33:06.997Z,2.07
2018-11-04T00:34:06.947Z,2.07
2018-11-04T00:35:06.894Z,2.04
2018-11-04T00:36:06.850Z,2.04
2018-11-04T00:37:06.794Z,2.00
2018-11-04T00:38:06.744Z,2.08
2018-11-04T00:39:06.690Z,2.04
2018-11-04T00:40:06.640Z,2.05
2018-11-04T00:41:06.591Z,2.04
2018-11-04T00:42:06.538Z,2.03
2018-11-04T00:43:06.492Z,2.00
2018-11-04T00:44:06.444Z,2.04
2018-11-04T00:45:06.441Z,2.04
2018-11-04T00:46:06.338Z,1.95
2018-11-04T00:47:06.291Z,1.98
2018-11-04T00:48:06.237Z,2.00
2018-11-04T00:49:06.191Z,1.95
2018-11-04T00:50:06.156Z,1.89
2018-11-04T00:51:06.085Z,2.01
2018-11-04T00:52:06.037Z,2.01
2018-11-04T00:53:05.993Z,2.00
2018-11-04T00:54:05.936Z,2.00
2018-11-04T00:55:05.891Z,1.97
2018-11-04T00:56:05.834Z,1.97
2018-11-04T00:57:05.788Z,1.95
2018-11-04T00:58:05.738Z,1.93
2018-11-04T00:59:05.687Z,2.04
2018-11-04T01:00:05.634Z,2.01
2018-11-04T01:01:05.587Z,1.97
2018-11-04T01:02:05.533Z,1.97
2018-11-04T01:03:05.485Z,1.93
2018-11-04T01:04:05.443Z,1.93
2018-11-04T01:05:05.385Z,1.97
2018-11-04T01:06:05.332Z,1.93
2018-11-04T01:07:05.281Z,1.95
2018-11-04T01:08:05.234Z,1.89
2018-11-04T01:09:05.187Z,2.03
2018-11-04T01:10:05.129Z,1.98
2018-11-04T01:11:05.080Z,1.95
2018-11-04T01:12:05.033Z,1.97
2018-11-04T01:13:04.985Z,1.95
2018-11-04T01:14:04.931Z,2.00
2018-11-04T01:15:04.879Z,2.00
2018-11-04T01:16:04.834Z,1.98
2018-11-04T01:17:04.787Z,1.97
2018-11-04T01:18:04.727Z,2.12
2018-11-04T01:19:04.687Z,1.98
2018-11-04T01:20:04.632Z,1.98
2018-11-04T01:21:04.648Z,2.00
2018-11-04T01:22:04.531Z,1.98
2018-11-04T01:23:04.480Z,2.08
2018-11-04T01:24:04.431Z,2.01
2018-11-04T01:25:04.382Z,2.08
2018-11-04T01:26:04.333Z,2.03
2018-11-04T01:27:04.279Z,2.08
2018-11-04T01:28:04.228Z,2.10
2018-11-04T01:29:04.186Z,2.08
2018-11-04T01:30:04.180Z,2.10
2018-11-04T01:31:04.083Z,2.01
2018-11-04T01:32:04.031Z,2.07
2018-11-04T01:33:03.978Z,2.05
2018-11-04T01:34:03.924Z,2.14
2018-11-04T01:35:03.876Z,2.14
2018-11-04T01:36:03.830Z,2.10
2018-11-04T01:37:03.777Z,2.15
2018-11-04T01:38:03.726Z,2.14
2018-11-04T01:39:03.678Z,2.15
2018-11-04T01:40:03.632Z,2.14
2018-11-04T01:41:03.581Z,2.21
2018-11-04T01:42:03.527Z,2.07
2018-11-04T01:43:03.471Z,2.18
2018-11-04T01:44:03.424Z,2.19
2018-11-04T01:45:03.373Z,2.21
2018-11-04T01:46:03.327Z,2.18
2018-11-04T01:47:03.278Z,2.16
2018-11-04T01:48:03.229Z,2.15
2018-11-04T01:49:03.229Z,2.23
2018-11-04T01:50:03.122Z,2.15
2018-11-04T01:51:03.069Z,2.18
2018-11-04T01:52:03.025Z,2.18
2018-11-04T01:53:02.975Z,2.23
2018-11-04T01:54:02.927Z,2.22
2018-11-04T01:55:02.870Z,2.22
2018-11-04T01:56:02.823Z,2.30
2018-11-04T01:57:02.774Z,2.28
2018-11-04T01:58:02.726Z,2.19
2018-11-04T01:59:02.671Z,2.25
2018-11-04T02:00:02.620Z,2.22
2018-11-04T02:01:02.571Z,2.30
2018-11-04T02:02:02.523Z,2.26
2018-11-04T02:03:02.503Z,2.22
2018-11-04T02:04:02.426Z,2.23
2018-11-04T02:05:02.394Z,2.21
2018-11-04T02:06:02.326Z,2.26
2018-11-04T02:07:02.270Z,2.26
2018-11-04T02:08:02.232Z,2.19
2018-11-04T02:09:02.169Z,2.28
2018-11-04T02:10:02.125Z,2.22
2018-11-04T02:11:02.077Z,2.28
2018-11-04T02:12:02.021Z,2.22
2018-11-04T02:13:01.975Z,2.23
2018-11-04T02:14:01.922Z,2.25
2018-11-04T02:15:01.870Z,2.26
2018-11-04T02:16:01.821Z,2.21
2018-11-04T02:17:01.774Z,2.22
2018-11-04T02:18:01.715Z,2.23
2018-11-04T02:19:01.672Z,2.21
2018-11-04T02:20:01.621Z,2.33
2018-11-04T02:21:01.572Z,2.25
2018-11-04T02:22:01.518Z,2.23
2018-11-04T02:23:01.473Z,2.21
2018-11-04T02:24:01.417Z,2.28
2018-11-04T02:25:01.388Z,2.28
2018-11-04T02:26:01.316Z,2.23
2018-11-04T02:27:01.271Z,2.28
2018-11-04T02:28:01.221Z,2.28
2018-11-04T02:29:01.166Z,2.26
2018-11-04T02:30:01.126Z,2.33
2018-11-04T02:31:01.070Z,2.30
2018-11-04T02:32:01.019Z,2.28
2018-11-04T02:33:00.973Z,2.28
2018-11-04T02:34:00.919Z,2.34
2018-11-04T02:35:00.863Z,2.33
2018-11-04T02:36:00.815Z,2.33
2018-11-04T02:37:00.768Z,2.32
2018-11-04T02:38:00.723Z,2.28
2018-11-04T02:39:00.665Z,2.22
2018-11-04T02:40:00.614Z,2.28
2018-11-04T02:41:00.566Z,2.32
2018-11-04T02:42:00.515Z,2.34
2018-11-04T02:43:00.473Z,2.40
2018-11-04T02:44:00.416Z,2.34
2018-11-04T02:45:00.365Z,2.32
2018-11-04T02:46:00.314Z,2.25
2018-11-04T02:47:00.319Z,2.25
2018-11-04T02:48:00.220Z,2.26
2018-11-04T02:49:00.162Z,2.26
2018-11-04T02:50:00.113Z,2.33
2018-11-04T02:51:00.066Z,2.22
2018-11-04T02:52:00.020Z,2.26
2018-11-04T02:52:59.963Z,2.26
2018-11-04T02:53:59.913Z,2.34
2018-11-04T02:54:59.865Z,2.30
2018-11-04T02:55:59.813Z,2.28
2018-11-04T02:56:59.770Z,2.30
2018-11-04T02:57:59.903Z,2.32
2018-11-04T02:58:59.660Z,2.36
2018-11-04T02:59:59.726Z,2.34
2018-11-04T03:00:59.566Z,2.37
2018-11-04T03:01:59.642Z,2.40
2018-11-04T03:02:59.462Z,2.37
2018-11-04T03:03:59.412Z,2.37
2018-11-04T03:04:59.368Z,2.40
2018-11-04T03:05:59.309Z,2.34
2018-11-04T03:06:59.258Z,2.41
2018-11-04T03:07:59.211Z,2.33
2018-11-04T03:08:59.160Z,2.43
2018-11-04T03:09:59.114Z,2.40
2018-11-04T03:10:59.061Z,2.43
2018-11-04T03:11:59.010Z,2.46
2018-11-04T03:12:58.960Z,2.46
2018-11-04T03:13:58.915Z,2.51
2018-11-04T03:14:58.860Z,2.43
2018-11-04T03:15:58.810Z,2.43
2018-11-04T03:16:58.765Z,2.54
2018-11-04T03:17:58.714Z,2.54
2018-11-04T03:18:58.671Z,2.55
2018-11-04T03:19:58.606Z,2.57
2018-11-04T03:20:58.566Z,2.51
2018-11-04T03:21:58.510Z,2.55
2018-11-04T03:22:58.458Z,2.54
2018-11-04T03:23:58.409Z,2.54
2018-11-04T03:24:58.361Z,2.54
2018-11-04T03:25:58.313Z,2.54
2018-11-04T03:26:58.260Z,2.61
2018-11-04T03:27:58.212Z,2.57
2018-11-04T03:28:58.160Z,2.55
2018-11-04T03:29:58.108Z,2.55
2018-11-04T03:30:58.065Z,2.54
2018-11-04T03:31:58.009Z,2.54
2018-11-04T03:32:57.959Z,2.50
2018-11-04T03:33:57.912Z,2.73
2018-11-04T03:34:57.866Z,2.61
2018-11-04T03:35:57.813Z,2.64
2018-11-04T03:36:57.763Z,2.68
2018-11-04T03:37:57.708Z,2.72
2018-11-04T03:38:57.655Z,2.73
2018-11-04T03:39:57.612Z,2.76
2018-11-04T03:40:57.563Z,2.80
2018-11-04T03:41:57.507Z,2.75
2018-11-04T03:42:57.463Z,2.79
2018-11-04T03:43:57.411Z,2.76
2018-11-04T03:44:57.356Z,2.82
2018-11-04T03:45:57.306Z,2.73
2018-11-04T03:46:57.257Z,2.88
2018-11-04T03:47:57.205Z,2.76
2018-11-04T03:48:57.155Z,2.83
2018-11-04T03:49:57.107Z,2.80
2018-11-04T03:50:57.059Z,2.82
2018-11-04T03:51:57.012Z,2.87
2018-11-04T03:52:56.961Z,2.82
2018-11-04T03:53:56.913Z,2.85
2018-11-04T03:54:56.862Z,2.88
2018-11-04T03:55:56.814Z,2.90
2018-11-04T03:56:56.759Z,2.83
2018-11-04T03:57:56.707Z,2.90
2018-11-04T03:58:56.664Z,2.79
2018-11-04T03:59:56.608Z,2.82
2018-11-04T04:00:56.556Z,2.87
2018-11-04T04:01:56.519Z,2.75
2018-11-04T04:02:56.463Z,2.79
2018-11-04T04:03:56.413Z,2.79
2018-11-04T04:04:56.361Z,2.80
2018-11-04T04:05:56.317Z,2.76
2018-11-04T04:06:56.263Z,2.79
2018-11-04T04:07:56.212Z,2.77
2018-11-04T04:08:56.163Z,2.82
2018-11-04T04:09:56.111Z,2.79
2018-11-04T04:10:56.062Z,2.82
2018-11-04T04:11:56.008Z,2.79
2018-11-04T04:12:55.957Z,2.70
2018-11-04T04:13:55.909Z,2.85
2018-11-04T04:14:55.857Z,2.75
2018-11-04T04:15:55.818Z,2.79
2018-11-04T04:16:55.760Z,2.79
2018-11-04T04:17:55.706Z,2.79
2018-11-04T04:18:55.662Z,2.76
2018-11-04T04:19:55.609Z,2.80
2018-11-04T04:20:55.559Z,2.77
2018-11-04T04:21:55.508Z,2.75
2018-11-04T04:22:55.456Z,2.75
2018-11-04T04:23:55.413Z,2.77
2018-11-04T04:24:55.356Z,2.76
2018-11-04T04:25:55.309Z,2.77
2018-11-04T04:26:55.260Z,2.64
2018-11-04T04:27:55.208Z,2.70
2018-11-04T04:28:55.159Z,2.76
2018-11-04T04:29:55.114Z,2.75
2018-11-04T04:30:55.065Z,2.80
2018-11-04T04:31:55.015Z,2.77
2018-11-04T04:32:54.963Z,2.79
2018-11-04T04:33:54.917Z,2.79
2018-11-04T04:34:54.859Z,2.77
2018-11-04T04:35:54.810Z,2.79
2018-11-04T04:36:54.759Z,2.76
2018-11-04T04:37:54.712Z,2.80
2018-11-04T04:38:54.663Z,2.76
2018-11-04T04:39:54.608Z,2.83
2018-11-04T04:40:54.561Z,2.90
2018-11-04T04:41:54.511Z,2.79
2018-11-04T04:42:54.463Z,2.80
2018-11-04T04:43:54.408Z,2.82
2018-11-04T04:44:54.365Z,2.83
2018-11-04T04:45:54.314Z,2.90
2018-11-04T04:46:54.258Z,2.79
2018-11-04T04:47:54.208Z,2.87
2018-11-04T04:48:54.156Z,2.90
2018-11-04T04:49:54.110Z,2.80
2018-11-04T04:50:54.065Z,2.83
2018-11-04T04:51:54.009Z,2.85
2018-11-04T04:52:53.962Z,2.87
2018-11-04T04:53:53.910Z,2.85
2018-11-04T04:54:53.859Z,2.88
2018-11-04T04:55:53.808Z,2.88
2018-11-04T04:56:53.757Z,2.90
2018-11-04T04:57:53.707Z,2.90
2018-11-04T04:58:53.668Z,2.88
2018-11-04T04:59:53.613Z,2.91
2018-11-04T05:00:53.557Z,2.88
2018-11-04T05:01:53.509Z,2.91
2018-11-04T05:02:53.466Z,2.98
2018-11-04T05:03:53.410Z,2.97
2018-11-04T05:04:53.360Z,3.03
2018-11-04T05:05:53.312Z,2.94
2018-11-04T05:06:53.257Z,3.00
2018-11-04T05:07:53.208Z,2.94
2018-11-04T05:08:53.163Z,3.05
2018-11-04T05:09:53.114Z,3.12
2018-11-04T05:10:53.064Z,3.11
2018-11-04T05:11:53.014Z,3.00
2018-11-04T05:12:52.956Z,3.12
2018-11-04T05:13:52.908Z,3.03
2018-11-04T05:14:52.860Z,3.15
2018-11-04T05:15:52.820Z,3.13
2018-11-04T05:16:52.765Z,3.12
2018-11-04T05:17:52.758Z,3.21
2018-11-04T05:18:52.669Z,3.12
2018-11-04T05:19:52.610Z,3.22
2018-11-04T05:20:52.569Z,3.21
2018-11-04T05:21:52.508Z,3.26
2018-11-04T05:22:52.467Z,3.29
2018-11-04T05:23:52.416Z,3.31
2018-11-04T05:24:52.361Z,3.26
2018-11-04T05:25:52.315Z,3.29
2018-11-04T05:26:52.263Z,3.26
2018-11-04T05:27:52.209Z,3.33
2018-11-04T05:28:52.163Z,3.22
2018-11-04T05:29:52.115Z,3.40
2018-11-04T05:30:52.065Z,3.34
2018-11-04T05:31:52.017Z,3.41
2018-11-04T05:32:51.968Z,3.40
2018-11-04T05:33:51.916Z,3.41
2018-11-04T05:34:51.864Z,3.56
2018-11-04T05:35:51.821Z,3.45
2018-11-04T05:36:51.764Z,3.48
2018-11-04T05:37:51.713Z,3.53
2018-11-04T05:38:51.669Z,3.49
2018-11-04T05:39:51.621Z,3.46
2018-11-04T05:40:51.564Z,3.46
2018-11-04T05:41:51.520Z,3.46
2018-11-04T05:42:51.463Z,3.48
2018-11-04T05:43:51.420Z,3.48
2018-11-04T05:44:51.369Z,3.50
2018-11-04T05:45:51.315Z,3.50
2018-11-04T05:46:51.265Z,3.58
2018-11-04T05:47:51.218Z,3.48
2018-11-04T05:48:51.195Z,3.63
2018-11-04T05:49:51.117Z,3.59
2018-11-04T05:50:51.072Z,3.61
2018-11-04T05:51:51.024Z,3.53
2018-11-04T05:52:50.973Z,3.66
2018-11-04T05:53:50.921Z,3.64
2018-11-04T05:54:50.870Z,3.58
2018-11-04T05:55:50.820Z,3.70
2018-11-04T05:56:50.778Z,3.77
2018-11-04T05:57:50.723Z,3.70
2018-11-04T05:58:50.674Z,3.82
2018-11-04T05:59:50.624Z,3.70
2018-11-04T06:00:50.580Z,3.73
2018-11-04T06:01:50.521Z,3.82
2018-11-04T06:02:50.520Z,3.82
2018-11-04T06:03:50.429Z,3.77
2018-11-04T06:04:50.377Z,3.77
2018-11-04T06:05:50.335Z,3.82
2018-11-04T06:06:50.277Z,3.86
2018-11-04T06:07:50.228Z,3.88
2018-11-04T06:08:50.183Z,3.81
2018-11-04T06:09:50.124Z,3.88
2018-11-04T06:10:50.081Z,3.91
2018-11-04T06:11:50.034Z,3.92
2018-11-04T06:12:49.979Z,3.89
2018-11-04T06:13:49.932Z,3.91
2018-11-04T06:14:49.881Z,3.94
2018-11-04T06:15:49.829Z,4.00
2018-11-04T06:16:49.785Z,3.94
2018-11-04T06:17:49.733Z,3.91
2018-11-04T06:18:49.683Z,3.94
2018-11-04T06:19:49.637Z,4.04
2018-11-04T06:20:49.590Z,3.91
2018-11-04T06:21:49.531Z,4.04
2018-11-04T06:22:49.482Z,4.09
2018-11-04T06:23:49.439Z,4.02
2018-11-04T06:24:49.385Z,4.13
2018-11-04T06:25:49.338Z,4.09
2018-11-04T06:26:49.288Z,4.14
2018-11-04T06:27:49.237Z,4.09
2018-11-04T06:28:49.184Z,4.21
2018-11-04T06:29:49.139Z,4.24
2018-11-04T06:30:49.089Z,4.25
2018-11-04T06:31:49.036Z,4.14
2018-11-04T06:32:48.989Z,4.13
2018-11-04T06:33:48.940Z,4.27
2018-11-04T06:34:49.023Z,4.25
2018-11-04T06:35:48.842Z,4.30
2018-11-04T06:36:48.796Z,4.24
2018-11-04T06:37:48.742Z,4.38
2018-11-04T06:38:48.694Z,4.27
2018-11-04T06:39:48.651Z,4.38
2018-11-04T06:40:48.598Z,4.38
2018-11-04T06:41:48.541Z,4.34
2018-11-04T06:42:48.494Z,4.36
2018-11-04T06:43:48.451Z,4.40
2018-11-04T06:44:48.403Z,4.38
2018-11-04T06:45:48.353Z,4.32
2018-11-04T06:46:48.298Z,4.43
2018-11-04T06:47:48.246Z,4.43
2018-11-04T06:48:48.200Z,4.42
2018-11-04T06:49:48.159Z,4.45
2018-11-04T06:50:48.098Z,4.53
2018-11-04T06:51:48.056Z,4.49
2018-11-04T06:52:48.008Z,4.57
2018-11-04T06:53:47.958Z,4.60
2018-11-04T06:54:47.900Z,4.53
2018-11-04T06:55:47.855Z,4.58
2018-11-04T06:56:47.805Z,4.57
2018-11-04T06:57:47.760Z,4.66
2018-11-04T06:58:47.719Z,4.64
2018-11-04T06:59:47.679Z,4.67
2018-11-04T07:00:47.606Z,4.66
2018-11-04T07:01:47.559Z,4.63
2018-11-04T07:02:47.513Z,4.71
2018-11-04T07:03:47.462Z,4.79
2018-11-04T07:04:47.412Z,4.79
2018-11-04T07:05:47.362Z,4.83
2018-11-04T07:06:47.322Z,4.75
2018-11-04T07:07:47.261Z,4.75
2018-11-04T07:08:47.232Z,4.86
2018-11-04T07:09:47.166Z,4.89
2018-11-04T07:10:47.123Z,4.90
2018-11-04T07:11:47.074Z,4.89
2018-11-04T07:12:47.018Z,4.79
2018-11-04T07:13:46.967Z,4.82
2018-11-04T07:14:46.920Z,4.90
2018-11-04T07:15:46.869Z,4.82
2018-11-04T07:16:46.819Z,4.83
2018-11-04T07:17:46.773Z,4.92
2018-11-04T07:18:46.729Z,5.00
2018-11-04T07:19:46.677Z,5.00
2018-11-04T07:20:46.623Z,5.02
2018-11-04T07:21:46.576Z,4.95
2018-11-04T07:22:46.527Z,5.01
2018-11-04T07:23:46.482Z,4.97
2018-11-04T07:24:46.430Z,5.02
2018-11-04T07:25:46.444Z,5.05
2018-11-04T07:26:46.328Z,5.12
2018-11-04T07:27:46.287Z,5.08
2018-11-04T07:28:46.232Z,5.08
2018-11-04T07:29:46.187Z,5.20
2018-11-04T07:30:46.136Z,5.15
2018-11-04T07:31:46.084Z,5.22
2018-11-04T07:32:46.037Z,5.23
2018-11-04T07:33:45.985Z,5.20
2018-11-04T07:34:45.942Z,5.20
2018-11-04T07:35:45.895Z,5.23
2018-11-04T07:36:45.849Z,5.23
2018-11-04T07:37:45.790Z,5.23
2018-11-04T07:38:45.746Z,5.33
2018-11-04T07:39:45.701Z,5.36
2018-11-04T07:40:45.642Z,5.37
2018-11-04T07:41:45.594Z,5.31
2018-11-04T07:42:45.544Z,5.37
2018-11-04T07:43:45.504Z,5.40
2018-11-04T07:44:45.449Z,5.37
2018-11-04T07:45:45.407Z,5.44
2018-11-04T07:46:45.352Z,5.37
2018-11-04T07:47:45.305Z,5.46
2018-11-04T07:48:45.261Z,5.46
2018-11-04T07:49:45.202Z,5.46
2018-11-04T07:50:45.260Z,5.55
2018-11-04T07:51:45.113Z,5.61
2018-11-04T07:52:45.059Z,5.54
2018-11-04T07:53:45.012Z,5.61
2018-11-04T07:54:45.006Z,5.62
2018-11-04T07:55:44.911Z,5.65
2018-11-04T07:56:44.921Z,5.64
2018-11-04T07:57:44.817Z,5.64
2018-11-04T07:58:44.770Z,5.64
2018-11-04T07:59:44.724Z,5.61
2018-11-04T08:00:44.678Z,5.70
2018-11-04T08:01:44.629Z,5.70
2018-11-04T08:02:44.573Z,5.72
2018-11-04T08:03:44.520Z,5.73
2018-11-04T08:04:44.478Z,5.76
2018-11-04T08:05:44.424Z,5.80
2018-11-04T08:06:44.375Z,5.81
2018-11-04T08:07:44.333Z,5.83
2018-11-04T08:08:44.281Z,5.84
2018-11-04T08:09:44.233Z,5.90
2018-11-04T08:10:44.179Z,5.92
2018-11-04T08:11:44.132Z,5.94
2018-11-04T08:12:44.087Z,6.02
2018-11-04T08:13:44.200Z,6.05
2018-11-04T08:14:43.985Z,5.94
2018-11-04T08:15:43.935Z,5.97
2018-11-04T08:16:43.894Z,6.02
2018-11-04T08:17:43.846Z,6.02
2018-11-04T08:18:43.791Z,6.02
2018-11-04T08:19:43.743Z,6.09
2018-11-04T08:20:43.693Z,6.16
2018-11-04T08:22:43.612Z,6.17
2018-11-04T08:23:43.879Z,6.25
2018-11-04T08:24:43.501Z,6.26
2018-11-04T08:25:43.459Z,6.28
2018-11-04T08:26:43.405Z,6.28
2018-11-04T08:27:43.408Z,6.36
2018-11-04T08:28:43.307Z,6.35
2018-11-04T08:29:43.259Z,6.39
2018-11-04T08:30:43.211Z,6.46
2018-11-04T08:31:43.162Z,6.47
2018-11-04T08:32:43.123Z,6.52
2018-11-04T08:33:43.070Z,6.57
2018-11-04T08:34:43.017Z,6.57
2018-11-04T08:35:42.968Z,6.53
2018-11-04T08:36:42.925Z,6.54
2018-11-04T08:37:42.869Z,6.64
2018-11-04T08:38:42.828Z,6.53
2018-11-04T08:39:42.832Z,6.67
2018-11-04T08:40:42.726Z,6.68
2018-11-04T08:41:42.694Z,6.74
2018-11-04T08:42:42.628Z,6.77
2018-11-04T08:43:42.593Z,6.71
2018-11-04T08:44:42.534Z,6.77
2018-11-04T08:45:42.548Z,6.78
2018-11-04T08:46:42.440Z,6.86
2018-11-04T08:47:42.404Z,6.89
2018-11-04T08:48:42.340Z,6.87
2018-11-04T08:49:42.291Z,6.90
2018-11-04T08:50:42.243Z,6.87
2018-11-04T08:52:42.326Z,7.01
2018-11-04T08:53:42.095Z,6.97
2018-11-04T08:54:42.049Z,7.07
2018-11-04T08:55:42.006Z,7.10
2018-11-04T08:56:41.957Z,7.04
2018-11-04T08:57:41.907Z,7.01
2018-11-04T08:58:41.858Z,7.00
2018-11-04T08:59:41.818Z,7.11
2018-11-04T09:00:41.762Z,7.14
2018-11-04T09:01:41.712Z,7.18
2018-11-04T09:02:41.665Z,7.14
2018-11-04T09:03:41.623Z,7.21
2018-11-04T09:04:41.569Z,7.23
2018-11-04T09:05:41.533Z,7.28
2018-11-04T09:06:41.676Z,7.29
2018-11-04T09:07:41.428Z,7.26
2018-11-04T09:08:41.402Z,7.31
2018-11-04T09:09:41.383Z,7.36
2018-11-04T09:10:41.282Z,7.33
2018-11-04T09:11:41.231Z,7.33
2018-11-04T09:12:41.197Z,7.41
2018-11-04T09:13:41.134Z,7.39
2018-11-04T09:14:41.092Z,7.44
2018-11-04T09:15:41.040Z,7.44
2018-11-04T09:16:40.998Z,7.48
2018-11-04T09:17:40.947Z,7.47
2018-11-04T09:18:40.898Z,7.46
2018-11-04T09:19:40.847Z,7.48
2018-11-04T09:20:40.804Z,7.61
2018-11-04T09:21:40.887Z,7.56
2018-11-04T09:22:40.803Z,7.59
2018-11-04T09:23:40.666Z,7.62
2018-11-04T09:24:40.608Z,7.59
2018-11-04T09:25:40.562Z,7.69
2018-11-04T09:26:40.518Z,7.67
2018-11-04T09:27:40.464Z,7.77
2018-11-04T09:28:40.418Z,7.72
2018-11-04T09:29:40.370Z,7.70
2018-11-04T09:30:40.334Z,7.78
2018-11-04T09:31:40.292Z,7.74
2018-11-04T09:32:40.229Z,7.78
2018-11-04T09:33:40.183Z,7.88
2018-11-04T09:34:40.236Z,7.87
2018-11-04T09:35:40.240Z,7.87
2018-11-04T09:36:40.139Z,7.88
2018-11-04T09:37:39.988Z,7.95
2018-11-04T09:38:39.938Z,7.98
2018-11-04T09:39:39.893Z,7.95
2018-11-04T09:40:39.850Z,7.99
2018-11-04T09:41:39.803Z,8.05
2018-11-04T09:42:39.752Z,8.01
2018-11-04T09:43:39.706Z,8.01
2018-11-04T09:44:39.656Z,8.13
2018-11-04T09:45:39.614Z,8.08
2018-11-04T09:46:39.564Z,8.11
2018-11-04T09:47:39.518Z,8.17
2018-11-04T09:48:39.470Z,8.18
2018-11-04T09:49:39.426Z,8.23
2018-11-04T09:50:39.375Z,8.21
2018-11-04T09:51:39.320Z,8.18
2018-11-04T09:52:39.278Z,8.27
2018-11-04T09:53:39.276Z,8.34
2018-11-04T09:54:39.179Z,8.36
2018-11-04T09:55:39.132Z,8.27
2018-11-04T09:56:39.171Z,8.28
2018-11-04T09:57:39.040Z,8.38
2018-11-04T09:58:38.993Z,8.44
2018-11-04T09:59:38.940Z,8.50
2018-11-04T10:00:38.897Z,8.46
2018-11-04T10:01:38.852Z,8.54
2018-11-04T10:02:38.799Z,8.54
2018-11-04T10:03:38.753Z,8.52
2018-11-04T10:04:38.702Z,8.64
2018-11-04T10:05:38.669Z,8.66
2018-11-04T10:06:38.608Z,8.64
2018-11-04T10:07:38.564Z,8.64
2018-11-04T10:08:38.513Z,8.61
2018-11-04T10:09:38.468Z,8.60
2018-11-04T10:10:38.417Z,8.57
2018-11-04T10:11:38.378Z,8.69
2018-11-04T10:12:38.325Z,8.72
2018-11-04T10:13:38.278Z,8.79
2018-11-04T10:14:38.238Z,8.81
2018-11-04T10:15:38.184Z,8.97
2018-11-04T10:16:38.182Z,8.92
2018-11-04T10:17:38.091Z,8.87
2018-11-04T10:18:38.107Z,8.87
2018-11-04T10:19:38.191Z,8.96
2018-11-04T10:20:38.186Z,8.95
2018-11-04T10:21:37.900Z,8.97
2018-11-04T10:22:37.852Z,9.09
2018-11-04T10:23:37.812Z,9.16
2018-11-04T10:24:37.763Z,9.12
2018-11-04T10:25:37.710Z,9.19
2018-11-04T10:26:37.668Z,9.18
2018-11-04T10:27:37.618Z,9.24
2018-11-04T10:28:37.576Z,9.16
2018-11-04T10:29:37.528Z,9.33
2018-11-04T10:30:37.473Z,9.29
2018-11-04T10:31:37.432Z,9.36
2018-11-04T10:32:37.379Z,9.29
2018-11-04T10:33:37.333Z,9.42
2018-11-04T10:34:37.336Z,9.40
2018-11-04T10:35:37.245Z,9.33
2018-11-04T10:36:37.195Z,9.44
2018-11-04T10:37:37.145Z,9.48
2018-11-04T10:38:37.103Z,9.55
2018-11-04T10:39:37.054Z,9.51
2018-11-04T10:40:37.004Z,9.58
2018-11-04T10:41:36.962Z,9.64
2018-11-04T10:42:36.910Z,9.63
2018-11-04T10:43:36.868Z,9.70
2018-11-04T10:44:36.820Z,9.74
2018-11-04T10:45:36.773Z,9.81
2018-11-04T10:46:36.728Z,9.76
2018-11-04T10:47:36.681Z,9.84
2018-11-04T10:48:36.629Z,9.87
2018-11-04T10:49:36.599Z,9.97
2018-11-04T10:50:36.537Z,9.99
2018-11-04T10:51:36.486Z,10.02
2018-11-04T10:52:36.447Z,10.00
2018-11-04T10:53:36.393Z,9.94
2018-11-04T10:54:36.348Z,10.03
2018-11-04T10:55:36.355Z,10.18
2018-11-04T10:56:36.260Z,10.20
2018-11-04T10:57:36.209Z,10.12
2018-11-04T10:58:36.160Z,10.24
2018-11-04T10:59:36.122Z,10.31
2018-11-04T11:00:36.077Z,10.25
2018-11-04T11:01:36.027Z,10.36
2018-11-04T11:02:35.980Z,10.33
2018-11-04T11:03:35.933Z,10.33
2018-11-04T11:04:35.959Z,10.48
2018-11-04T11:05:35.833Z,10.51
2018-11-04T11:06:35.789Z,10.42
2018-11-04T11:07:35.744Z,10.49
2018-11-04T11:08:35.698Z,10.46
2018-11-04T11:09:35.653Z,10.49
2018-11-04T11:10:35.601Z,10.53
2018-11-04T11:11:35.554Z,10.49
2018-11-04T11:12:35.509Z,10.64
2018-11-04T11:13:35.466Z,10.59
2018-11-04T11:14:35.420Z,10.59
2018-11-04T11:15:35.372Z,10.71
2018-11-04T11:16:35.327Z,10.69
2018-11-04T11:17:35.276Z,10.72
2018-11-04T11:18:35.230Z,10.72
2018-11-04T11:19:35.186Z,10.80
2018-11-04T11:20:35.145Z,10.82
2018-11-04T11:21:35.099Z,10.94
2018-11-04T11:22:35.194Z,10.86
2018-11-04T11:23:35.005Z,10.97
2018-11-04T11:24:34.954Z,11.00
2018-11-04T11:25:34.912Z,11.07
2018-11-04T11:26:34.863Z,11.04
2018-11-04T11:27:34.818Z,11.12
2018-11-04T11:28:34.771Z,11.22
2018-11-04T11:29:34.723Z,11.27
2018-11-04T11:30:34.686Z,11.31
2018-11-04T11:31:34.635Z,11.25
2018-11-04T11:32:34.594Z,11.35
2018-11-04T11:33:34.538Z,11.43
2018-11-04T11:34:34.497Z,11.45
2018-11-04T11:35:34.498Z,11.44
2018-11-04T11:36:34.403Z,11.55
2018-11-04T11:37:34.381Z,11.55
2018-11-04T11:38:34.310Z,11.67
2018-11-04T11:39:34.267Z,11.68
2018-11-04T11:40:34.223Z,11.71
2018-11-04T11:41:34.196Z,11.78
2018-11-04T11:42:34.123Z,11.88
2018-11-04T11:43:34.083Z,11.89
2018-11-04T11:44:34.040Z,11.86
2018-11-04T11:45:33.984Z,12.02
2018-11-04T11:46:33.939Z,11.97
2018-11-04T11:47:33.904Z,12.08
2018-11-04T11:48:33.854Z,12.14
2018-11-04T11:49:33.803Z,12.17
2018-11-04T11:50:33.760Z,12.29
2018-11-04T11:51:33.715Z,12.25
2018-11-04T11:52:33.747Z,12.30
2018-11-04T11:53:33.627Z,12.26
2018-11-04T11:54:33.584Z,12.37
2018-11-04T11:55:33.558Z,12.44
2018-11-04T11:56:33.484Z,12.48
2018-11-04T11:57:33.443Z,12.43
2018-11-04T11:58:33.400Z,12.48
2018-11-04T11:59:33.350Z,12.53
2018-11-04T12:00:33.303Z,12.55
2018-11-04T12:01:33.258Z,12.58
2018-11-04T12:02:33.212Z,12.66
2018-11-04T12:03:33.170Z,12.57
2018-11-04T12:04:33.121Z,12.61
2018-11-04T12:05:33.078Z,12.58
2018-11-04T12:06:33.029Z,12.63
2018-11-04T12:07:32.983Z,12.63
2018-11-04T12:08:32.947Z,12.73
2018-11-04T12:09:32.894Z,12.73
2018-11-04T12:10:32.849Z,12.75
2018-11-04T12:11:32.801Z,12.81
2018-11-04T12:12:32.757Z,12.84
2018-11-04T12:13:32.712Z,12.84
2018-11-04T12:14:32.666Z,12.83
2018-11-04T12:15:32.620Z,12.88
2018-11-04T12:16:32.576Z,12.88
2018-11-04T12:17:32.543Z,12.90
2018-11-04T12:18:32.484Z,12.88
2018-11-04T12:19:32.446Z,13.08
2018-11-04T12:20:32.398Z,13.01
2018-11-04T12:21:32.357Z,13.06
2018-11-04T12:22:32.302Z,13.03
2018-11-04T12:23:32.295Z,13.03
2018-11-04T12:24:32.214Z,13.02
2018-11-04T12:25:32.183Z,13.05
2018-11-04T12:26:32.123Z,13.13
2018-11-04T12:27:32.081Z,13.09
2018-11-04T12:28:32.032Z,13.23
2018-11-04T12:29:31.994Z,13.19
2018-11-04T12:30:31.948Z,13.20
2018-11-04T12:31:31.897Z,13.27
2018-11-04T12:32:31.853Z,13.13
2018-11-04T12:33:31.813Z,13.23
2018-11-04T12:34:31.766Z,13.28
2018-11-04T12:35:31.723Z,13.24
2018-11-04T12:36:31.676Z,13.28
2018-11-04T12:37:31.630Z,13.31
2018-11-04T12:38:31.587Z,13.36
2018-11-04T12:39:32.347Z,13.36
2018-11-04T12:40:31.490Z,13.31
2018-11-04T12:41:31.451Z,13.31
2018-11-04T12:42:31.411Z,13.40
2018-11-04T12:43:31.357Z,13.42
2018-11-04T12:44:31.313Z,13.43
2018-11-04T12:45:31.291Z,13.45
2018-11-04T12:46:31.226Z,13.43
2018-11-04T12:47:31.187Z,13.36
2018-11-04T12:48:31.137Z,13.43
2018-11-04T12:49:31.092Z,13.52
2018-11-04T12:50:31.047Z,13.49
2018-11-04T12:51:31.000Z,13.54
2018-11-04T12:52:30.955Z,13.54
2018-11-04T12:53:30.904Z,13.49
2018-11-04T12:54:30.869Z,13.57
2018-11-04T12:55:30.818Z,13.62
2018-11-04T12:56:30.777Z,13.57
2018-11-04T12:57:30.723Z,13.65
2018-11-04T12:58:30.683Z,13.64
2018-11-04T12:59:30.635Z,13.62
2018-11-04T13:00:30.588Z,13.71
2018-11-04T13:01:30.543Z,13.71
2018-11-04T13:02:30.507Z,13.76
2018-11-04T13:03:30.457Z,13.75
2018-11-04T13:04:30.424Z,13.71
2018-11-04T13:05:30.375Z,13.70
2018-11-04T13:06:30.321Z,13.73
2018-11-04T13:07:30.275Z,13.65
2018-11-04T13:08:30.235Z,13.68
2018-11-04T13:09:30.189Z,13.67
2018-11-04T13:10:30.137Z,13.70
2018-11-04T13:11:30.147Z,13.71
2018-11-04T13:12:30.058Z,13.78
2018-11-04T13:13:30.007Z,13.71
2018-11-04T13:14:29.965Z,13.70